createdAt,value
2022-09-11T00:03:00.231Z,24.29
2022-09-11T00:08:02.476Z,24.22
2022-09-11T00:13:04.803Z,24.17
2022-09-11T00:18:08.454Z,24.18
2022-09-11T00:23:10.287Z,23.99
2022-09-11T00:28:17.574Z,23.91
2022-09-11T00:33:19.471Z,23.83
2022-09-11T00:38:21.287Z,23.75
2022-09-11T00:43:23.179Z,23.59
2022-09-11T00:48:28.193Z,23.61
2022-09-11T00:53:33.736Z,23.50
2022-09-11T00:58:39.518Z,23.42
2022-09-11T01:03:42.395Z,23.47
2022-09-11T01:08:44.587Z,23.47
2022-09-11T01:14:04.466Z,23.49
2022-09-11T01:19:40.327Z,23.43
2022-09-11T01:24:56.733Z,23.40
2022-09-11T01:30:10.859Z,23.11
2022-09-11T01:35:22.257Z,22.91
2022-09-11T01:40:36.871Z,23.04
2022-09-11T01:45:41.423Z,22.80
2022-09-11T01:50:46.051Z,22.82
2022-09-11T01:56:02.596Z,22.69
2022-09-11T02:01:20.103Z,22.58
2022-09-11T02:06:27.177Z,22.74
2022-09-11T02:11:32.618Z,22.68
2022-09-11T02:16:44.248Z,22.72
2022-09-11T02:21:47.946Z,22.72
2022-09-11T02:26:56.245Z,22.60
2022-09-11T02:32:00.930Z,22.63
2022-09-11T02:37:16.549Z,22.59
2022-09-11T02:42:51.712Z,22.57
2022-09-11T02:48:15.181Z,22.58
2022-09-11T02:53:27.007Z,22.54
2022-09-11T02:58:39.952Z,22.51
2022-09-11T03:03:46.162Z,22.31
2022-09-11T03:08:49.134Z,22.36
2022-09-11T03:13:52.693Z,22.38
2022-09-11T03:18:55.234Z,22.16
2022-09-11T03:23:57.577Z,22.06
2022-09-11T03:28:59.821Z,22.06
2022-09-11T03:34:02.012Z,21.98
2022-09-11T03:39:04.510Z,21.88
2022-09-11T03:44:06.446Z,21.84
2022-09-11T03:49:08.579Z,21.75
2022-09-11T03:54:11.037Z,21.80
2022-09-11T03:59:13.329Z,21.82
2022-09-11T04:04:16.279Z,21.85
2022-09-11T04:09:18.647Z,21.84
2022-09-11T04:14:23.370Z,21.48
2022-09-11T04:19:29.489Z,21.66
2022-09-11T04:24:31.829Z,21.58
2022-09-11T04:29:34.461Z,21.35
2022-09-11T04:34:36.511Z,21.25
2022-09-11T04:39:38.513Z,21.16
2022-09-11T04:44:40.703Z,21.18
2022-09-11T04:49:42.594Z,21.33
2022-09-11T04:54:46.602Z,21.29
2022-09-11T04:59:52.906Z,21.27
2022-09-11T05:04:55.184Z,21.25
2022-09-11T05:09:57.677Z,21.23
2022-09-11T05:15:00.770Z,21.22
2022-09-11T05:20:11.264Z,21.19
2022-09-11T05:25:14.209Z,21.12
2022-09-11T05:30:21.829Z,21.13
2022-09-11T05:35:26.459Z,21.05
2022-09-11T05:40:31.437Z,21.08
2022-09-11T05:45:34.782Z,21.36
2022-09-11T05:50:38.548Z,21.37
2022-09-11T06:10:05.377Z,21.64
2022-09-11T06:15:20.334Z,21.61
2022-09-11T06:20:31.213Z,21.72
2022-09-11T06:25:34.073Z,21.85
2022-09-11T06:30:36.723Z,22.18
2022-09-11T06:35:39.075Z,22.20
2022-09-11T06:40:41.087Z,22.62
2022-09-11T06:45:43.979Z,22.45
2022-09-11T06:50:47.146Z,21.79
2022-09-11T06:55:49.032Z,21.58
2022-09-11T07:00:52.731Z,21.48
2022-09-11T07:05:56.242Z,21.53
2022-09-11T07:11:06.274Z,21.56
2022-09-11T07:16:10.772Z,21.60
2022-09-11T07:21:21.483Z,21.71
2022-09-11T07:26:28.255Z,21.76
2022-09-11T07:31:38.858Z,21.87
2022-09-11T07:36:41.835Z,21.99
2022-09-11T07:41:44.733Z,22.15
2022-09-11T07:55:29.192Z,22.67
2022-09-11T08:00:36.535Z,22.79
2022-09-11T08:12:59.739Z,23.34
2022-09-11T08:18:06.873Z,23.24
2022-09-11T08:23:09.917Z,23.67
2022-09-11T08:28:11.978Z,23.70
2022-09-11T08:33:14.299Z,24.21
2022-09-11T08:38:18.021Z,24.63
2022-09-11T08:43:26.647Z,25.09
2022-09-11T08:48:54.000Z,25.35
2022-09-11T08:53:57.042Z,26.17
2022-09-11T08:59:17.696Z,27.33
2022-09-11T09:04:47.173Z,28.50
2022-09-11T09:10:21.295Z,29.63
2022-09-11T09:15:46.508Z,29.85
2022-09-11T09:21:01.287Z,30.23
2022-09-11T09:26:03.526Z,31.18
2022-09-11T09:31:07.587Z,31.34
2022-09-11T09:36:22.571Z,31.38
2022-09-11T09:41:49.740Z,31.49
2022-09-11T09:46:55.987Z,31.99
2022-09-11T09:52:04.094Z,32.34
2022-09-11T09:57:10.651Z,32.49
2022-09-11T10:02:12.732Z,32.31
2022-09-11T10:07:20.543Z,32.70
2022-09-11T10:12:24.812Z,33.08
2022-09-11T10:17:30.548Z,33.59
2022-09-11T10:22:32.529Z,34.04
2022-09-11T10:27:39.446Z,34.49
2022-09-11T10:32:42.798Z,34.52
2022-09-11T10:37:44.727Z,34.94
2022-09-11T10:42:52.160Z,35.55
2022-09-11T10:47:54.090Z,34.63
2022-09-11T10:52:58.896Z,35.29
2022-09-11T10:58:14.232Z,35.24
2022-09-11T11:03:26.290Z,35.37
2022-09-11T11:08:51.001Z,35.53
2022-09-11T11:14:11.637Z,35.38
2022-09-11T11:19:22.274Z,35.06
2022-09-11T11:24:46.644Z,34.82
2022-09-11T11:30:05.153Z,34.66
2022-09-11T11:35:17.613Z,34.75
2022-09-11T11:40:40.569Z,34.33
2022-09-11T11:45:45.376Z,33.98
2022-09-11T11:50:53.429Z,33.74
2022-09-11T11:56:14.843Z,33.50
2022-09-11T12:01:38.583Z,32.78
2022-09-11T12:06:45.244Z,32.91
2022-09-11T12:11:50.099Z,32.63
2022-09-11T12:16:52.378Z,32.51
2022-09-11T12:21:55.127Z,32.44
2022-09-11T12:27:34.389Z,32.41
2022-09-11T12:32:44.320Z,32.51
2022-09-11T12:38:13.356Z,32.57
2022-09-11T12:43:35.396Z,32.48
2022-09-11T12:48:52.705Z,32.50
2022-09-11T12:54:16.135Z,32.42
2022-09-11T12:59:30.149Z,32.45
2022-09-11T13:04:32.374Z,32.28
2022-09-11T13:09:42.321Z,32.34
2022-09-11T13:14:51.350Z,32.28
2022-09-11T13:19:58.181Z,32.37
2022-09-11T13:25:15.537Z,32.89
2022-09-11T13:30:21.677Z,32.61
2022-09-11T13:35:27.755Z,32.86
2022-09-11T13:40:47.339Z,32.75
2022-09-11T13:45:49.294Z,33.13
2022-09-11T13:50:51.919Z,32.84
2022-09-11T13:55:53.783Z,33.20
2022-09-11T14:00:56.114Z,32.94
2022-09-11T14:05:58.890Z,33.15
2022-09-11T14:11:11.154Z,32.94
2022-09-11T14:16:16.177Z,33.33
2022-09-11T14:21:27.038Z,33.39
2022-09-11T14:26:32.562Z,33.34
2022-09-11T14:31:40.466Z,33.14
2022-09-11T14:36:45.598Z,33.05
2022-09-11T14:41:47.413Z,33.07
2022-09-11T14:46:49.345Z,32.89
2022-09-11T14:51:58.523Z,32.91
2022-09-11T14:57:00.940Z,32.97
2022-09-11T15:02:03.002Z,32.86
2022-09-11T15:07:06.798Z,32.70
2022-09-11T15:12:10.332Z,32.99
2022-09-11T15:17:15.095Z,33.30
2022-09-11T15:22:17.720Z,33.38
2022-09-11T15:27:20.278Z,33.35
2022-09-11T15:32:22.275Z,33.35
2022-09-11T15:37:25.554Z,33.02
2022-09-11T15:42:27.424Z,33.24
2022-09-11T15:54:53.640Z,33.07
2022-09-11T15:59:55.929Z,33.02
2022-09-11T16:04:59.901Z,32.76
2022-09-11T16:10:01.954Z,33.05
2022-09-11T16:15:04.624Z,33.12
2022-09-11T16:20:06.985Z,33.10
2022-09-11T16:25:08.738Z,32.96
2022-09-11T16:30:42.493Z,32.76
2022-09-11T16:35:34.071Z,32.60
2022-09-11T16:40:36.581Z,32.60
2022-09-11T16:45:39.956Z,32.46
2022-09-11T16:50:42.010Z,32.30
2022-09-11T16:55:43.779Z,32.05
2022-09-11T17:00:46.253Z,32.08
2022-09-11T17:05:49.654Z,31.96
2022-09-11T17:10:56.096Z,31.81
2022-09-11T17:16:13.883Z,31.61
2022-09-11T17:21:17.899Z,31.48
2022-09-11T17:26:19.984Z,31.37
2022-09-11T17:31:22.330Z,31.39
2022-09-11T17:36:24.318Z,31.22
2022-09-11T17:41:26.529Z,31.00
2022-09-11T17:46:29.599Z,30.93
2022-09-11T17:51:31.507Z,30.84
2022-09-11T17:56:33.280Z,30.65
2022-09-11T18:01:35.235Z,30.50
2022-09-11T18:06:37.802Z,30.45
2022-09-11T18:11:40.800Z,30.38
2022-09-11T18:16:47.253Z,30.24
2022-09-11T18:21:50.557Z,30.12
2022-09-11T18:26:57.277Z,30.07
2022-09-11T18:32:03.510Z,29.75
2022-09-11T18:37:07.310Z,29.83
2022-09-11T18:42:09.115Z,29.78
2022-09-11T18:47:10.958Z,29.68
2022-09-11T18:52:14.763Z,29.64
2022-09-11T18:57:16.642Z,29.52
2022-09-11T19:02:21.245Z,29.54
2022-09-11T19:07:23.181Z,29.34
2022-09-11T19:12:26.175Z,29.23
2022-09-11T19:17:28.171Z,29.45
2022-09-11T19:22:30.217Z,29.38
2022-09-11T19:27:32.098Z,29.27
2022-09-11T19:32:33.993Z,29.19
2022-09-11T19:37:47.718Z,29.06
2022-09-11T19:42:49.699Z,28.96
2022-09-11T19:47:51.823Z,28.83
2022-09-11T20:11:45.868Z,28.44
2022-09-11T20:16:47.917Z,28.26
2022-09-11T20:21:49.936Z,28.20
2022-09-11T20:26:53.191Z,28.10
2022-09-11T20:31:55.949Z,28.05
2022-09-11T20:37:00.914Z,27.98
2022-09-11T20:42:03.043Z,27.88
2022-09-11T20:47:04.906Z,27.88
2022-09-11T20:52:09.424Z,27.87
2022-09-11T20:57:11.213Z,27.72
2022-09-11T21:02:14.904Z,27.69
2022-09-11T21:07:17.177Z,27.73
2022-09-11T21:12:19.322Z,27.56
2022-09-11T21:17:21.225Z,27.51
2022-09-11T21:22:23.525Z,27.22
2022-09-11T21:27:25.360Z,27.24
2022-09-11T21:32:27.215Z,27.12
2022-09-11T21:37:29.232Z,27.15
2022-09-11T21:42:31.350Z,27.01
2022-09-11T21:47:33.112Z,26.79
2022-09-11T21:52:35.206Z,26.72
2022-09-11T21:57:36.975Z,26.59
2022-09-11T22:02:38.923Z,26.61
2022-09-11T22:07:41.255Z,26.62
2022-09-11T22:12:43.085Z,26.63
2022-09-11T22:17:44.972Z,26.56
2022-09-11T22:22:48.623Z,26.33
2022-09-11T22:27:50.513Z,26.42
2022-09-11T22:32:52.278Z,26.37
2022-09-11T22:37:54.175Z,26.35
2022-09-11T22:42:56.263Z,26.24
2022-09-11T22:47:59.233Z,26.15
2022-09-11T22:53:01.151Z,26.07
2022-09-11T22:58:02.981Z,25.95
2022-09-11T23:03:04.890Z,26.04
2022-09-11T23:08:06.832Z,26.29
2022-09-11T23:13:08.791Z,26.23
2022-09-11T23:18:10.923Z,26.36
2022-09-11T23:23:12.882Z,26.33
2022-09-11T23:28:15.033Z,26.29
2022-09-11T23:33:16.984Z,26.32
2022-09-11T23:38:20.089Z,26.36
2022-09-11T23:43:21.837Z,26.16
2022-09-11T23:48:25.629Z,25.10
2022-09-11T23:53:31.273Z,23.85
2022-09-11T23:58:36.661Z,23.71
